Latest Weather Observations for PORTABLE RFSNSW20

IDN60801

Issued at 2:13 pm EDT Saturday 5 December 2020 (issued every 10 minutes, with the page automatically refreshed every 10 minutes)

About weather observations | Map of weather stations | Latest weather observations for NSW | Other Formats
Station Details ID: 250085 Name: PORTABLE RFSNSW20 Lat: -31.04 Lon: 149.37 Height: 583.0 m

Portable automatic weather stations (PAWS) are operated by other organisations, such as Fire and Emergency Services, and are included here by agreement. Portable stations may be deployed to a location for a short period and their location may be subject to change without notice. Wind observations from these stations are provided from heights of either three (3) or ten (10) metres above ground level (AGL).

Data from the previous 72 hours. | See also: Recent months for locations in New South Wales
Date/Time
EDT
Temp
°C
App
Temp
°C
Dew
Point
°C
Rel
Hum
%
Delta-T
°C
Wind Press
QNH
hPa
Press
MSL
hPa
Rain since
9am
mm
Dir  Spd
km/h
Gust
km/h
Spd
kts
Gust
kts
05/02:00pm 23.3 24.9 19.2 78 2.7 SSW 9 11 5 6 - - 2.8
05/01:50pm 22.7 24.9 19.6 82 2.0 SSW 7 11 4 6 - - 2.8
05/01:40pm 22.3 24.4 20.2 88 1.4 SW 9 11 5 6 - - 2.8
05/01:30pm 22.1 24.4 19.9 87 1.4 SW 7 9 4 5 - - 2.8
05/01:20pm 21.6 23.6 18.8 84 1.8 SSW 6 6 3 3 - - 2.8
05/01:10pm 21.3 23.5 19.3 88 1.3 SSE 6 7 3 4 - - 2.8
05/01:00pm 21.0 23.0 19.2 89 1.2 S 7 9 4 5 - - 2.8
05/12:50pm 20.6 22.0 19.5 93 0.7 SSW 11 13 6 7 - - 2.8
05/12:40pm 21.1 22.3 19.9 93 0.8 SSW 13 19 7 10 - - 2.6
05/12:30pm 22.7 22.1 18.9 79 2.5 SSW 20 22 11 12 - - 0.0
05/12:20pm 24.5 22.6 17.7 66 4.4 SW 24 33 13 18 - - 0.0
05/12:10pm 29.2 29.2 17.2 48 7.7 WNW 13 24 7 13 - - 0.0
05/12:00pm 29.8 29.4 16.1 43 8.7 NNW 13 17 7 9 - - 0.0
05/11:50am 30.4 30.0 16.2 42 9.1 NNW 13 17 7 9 - - 0.0
05/11:40am 31.0 30.7 16.4 41 9.4 NNW 13 17 7 9 - - 0.0
05/11:30am 31.4 31.5 16.6 41 9.5 NNW 11 15 6 8 - - 0.0
05/11:20am 31.2 32.0 17.2 43 9.1 NNW 9 11 5 6 - - 0.0
05/11:10am 30.6 31.3 17.1 44 8.7 N 9 13 5 7 - - 0.0
05/11:00am 29.9 29.9 16.2 43 8.7 NNW 11 13 6 7 - - 0.0
05/10:50am 30.0 29.7 16.4 44 8.7 N 13 17 7 9 - - 0.0
05/10:40am 30.8 30.9 16.4 42 9.2 N 11 13 6 7 - - 0.0
05/10:30am 31.2 31.3 16.5 41 9.4 N 11 17 6 9 - - 0.0
05/10:20am 31.6 31.0 16.7 40 9.6 N 15 19 8 10 - - 0.0
05/10:10am 31.3 31.1 16.8 41 9.4 N 13 19 7 10 - - 0.0
05/10:00am 30.9 31.3 17.2 43 8.9 N 11 15 6 8 - - 0.8
05/09:50am 30.5 30.9 17.2 44 8.6 N 11 13 6 7 - - 0.8
05/09:40am 30.5 30.9 17.3 45 8.6 N 11 11 6 6 - - 0.8
05/09:30am 30.3 31.1 17.3 45 8.4 N 9 13 5 7 - - 0.8
05/09:20am 29.8 30.8 17.8 48 7.8 N 9 11 5 6 - - 0.8
05/09:10am 29.1 30.8 18.0 51 7.2 NE 6 9 3 5 - - 0.8
05/09:00am 28.7 30.0 17.0 49 7.5 NE 6 7 3 4 - - 0.8
05/08:50am 28.2 29.2 16.9 50 7.2 NE 7 7 4 4 - - 0.8
05/08:40am 27.8 28.7 16.5 50 7.2 NE 7 9 4 5 - - 0.8
05/08:30am 27.5 27.9 15.2 47 7.7 NE 7 9 4 5 - - 0.8
05/08:20am 26.9 27.3 15.2 48 7.3 ENE 7 9 4 5 - - 0.8
05/08:10am 26.7 27.0 14.4 46 7.5 ENE 6 7 3 4 - - 0.8
05/08:00am 26.2 26.1 13.8 46 7.5 ENE 7 9 4 5 - - 0.8
05/07:50am 25.8 25.4 13.1 45 7.6 ENE 7 11 4 6 - - 0.8
05/07:40am 25.5 25.2 13.3 46 7.3 ENE 7 7 4 4 - - 0.8
05/07:30am 25.2 25.0 13.1 47 7.2 ENE 6 7 3 4 - - 0.8
05/07:20am 24.5 24.2 13.3 49 6.7 ENE 7 7 4 4 - - 0.8
05/07:10am 24.1 23.6 12.5 48 6.8 ENE 7 7 4 4 - - 0.8
05/07:00am 23.8 23.2 12.4 48 6.7 ENE 7 9 4 5 - - 0.8
05/06:50am 23.5 23.1 12.9 51 6.3 ENE 7 9 4 5 - - 0.8
05/06:40am 23.5 23.0 12.8 51 6.3 E 7 9 4 5 - - 0.8
05/06:30am 23.4 23.1 12.6 50 6.3 ENE 6 7 3 4 - - 0.8
05/06:20am 23.5 22.9 12.3 49 6.5 E 7 7 4 4 - - 0.8
05/06:10am 23.8 23.1 12.1 48 6.8 E 7 7 4 4 - - 0.8
05/06:00am 24.1 23.3 11.2 44 7.4 E 6 7 3 4 - - 0.8
05/05:50am 24.3 23.2 9.8 40 8.2 ENE 6 6 3 3 - - 0.8
05/05:40am 24.0 23.8 11.7 46 7.1 - 4 6 2 3 - - 0.8
05/05:30am 24.2 23.6 11.7 45 7.3 E 6 6 3 3 - - 0.8
05/05:20am 24.1 23.9 11.9 46 7.1 E 4 6 2 3 - - 0.8
05/05:10am 24.0 23.8 13.1 50 6.5 E 6 6 3 3 - - 0.8
05/05:00am 24.2 24.8 14.3 54 6.0 - 4 6 2 3 - - 0.8
05/04:50am 24.4 24.8 13.8 51 6.4 E 4 6 2 3 - - 0.8
05/04:40am 24.4 24.9 14.1 52 6.2 E 4 6 2 3 - - 0.8
05/04:30am 24.6 25.2 14.3 52 6.3 ENE 4 6 2 3 - - 0.8
05/04:20am 24.6 25.1 14.0 51 6.4 ENE 4 6 2 3 - - 0.8
05/04:10am 24.8 25.5 14.4 52 6.3 ENE 4 4 2 2 - - 0.8
05/04:00am 25.3 26.0 14.5 51 6.6 NNE 4 6 2 3 - - 0.8
05/03:50am 25.5 26.0 13.9 48 7.0 N 4 6 2 3 - - 0.8
05/03:40am 25.5 26.3 13.6 47 7.2 N 2 4 1 2 - - 0.8
05/03:30am 25.2 25.5 13.3 47 7.1 NNW 4 4 2 2 - - 0.8
05/03:20am 24.9 25.4 13.9 50 6.6 NW 4 6 2 3 - - 0.8
05/03:10am 24.7 24.9 14.1 51 6.4 N 6 6 3 3 - - 0.8
05/03:00am 24.6 25.0 14.8 54 6.0 N 6 6 3 3 - - 0.8
05/02:50am 24.8 25.3 15.0 54 6.0 N 6 7 3 4 - - 0.8
05/02:40am 25.0 25.4 14.8 53 6.3 NNE 6 7 3 4 - - 0.8
05/02:30am 25.2 25.5 14.4 51 6.6 NE 6 6 3 3 - - 0.8
05/02:20am 25.4 26.1 14.4 50 6.7 NE 4 4 2 2 - - 0.8
05/02:10am 25.5 25.8 13.3 46 7.3 NE 4 6 2 3 - - 0.8
05/02:00am 25.5 26.1 14.2 49 6.9 NE 4 6 2 3 - - 0.8
05/01:50am 25.4 25.8 13.8 48 7.0 NNE 4 4 2 2 - - 0.8
05/01:40am 25.3 25.8 14.0 49 6.8 NE 4 6 2 3 - - 0.8
05/01:30am 24.9 25.4 14.1 51 6.5 NE 4 6 2 3 - - 0.8
05/01:20am 24.8 25.1 14.6 53 6.2 NNE 6 6 3 3 - - 0.8
05/01:10am 25.0 25.3 14.5 52 6.4 N 6 7 3 4 - - 0.8
05/01:00am 25.0 25.4 14.7 52 6.3 N 6 7 3 4 - - 0.8
05/12:50am 24.9 25.3 14.8 53 6.2 N 6 7 3 4 - - 0.8
05/12:40am 24.9 25.2 15.1 54 6.0 N 7 7 4 4 - - 0.8
05/12:30am 25.1 25.8 15.5 55 6.0 N 6 7 3 4 - - 0.8
05/12:20am 25.0 25.6 15.3 55 6.0 N 6 7 3 4 - - 0.8
05/12:10am 24.9 25.9 16.3 59 5.4 N 6 7 3 4 - - 0.8
05/12:00am 25.0 25.9 16.6 59 5.3 N 7 7 4 4 - - 0.8
 
Date/Time
EDT
Temp
°C
App
Temp
°C
Dew
Point
°C
Rel
Hum
%
Delta-T
°C
Wind Press
QNH
hPa
Press
MSL
hPa
Rain since
9am
mm
Dir  Spd
km/h
Gust
km/h
Spd
kts
Gust
kts
04/11:50pm 25.2 26.3 16.5 58 5.5 N 6 7 3 4 - - 0.8
04/11:40pm 25.3 26.6 17.0 60 5.3 N 6 7 3 4 - - 0.8
04/11:30pm 25.7 27.0 17.0 58 5.5 N 6 7 3 4 - - 0.8
04/11:20pm 26.6 27.8 16.9 55 6.2 NE 6 6 3 3 - - 0.8
04/11:10pm 26.8 27.4 15.3 49 7.2 NNE 6 7 3 4 - - 0.8
04/11:00pm 27.4 28.0 15.4 48 7.5 NNE 6 6 3 3 - - 0.8
04/10:50pm 27.4 26.9 12.2 39 9.0 E 6 6 3 3 - - 0.8
04/10:40pm 27.0 27.2 13.0 42 8.4 E 4 6 2 3 - - 0.8
04/10:30pm 27.0 27.1 14.0 44 7.9 E 6 6 3 3 - - 0.8
04/10:20pm 27.5 27.8 14.5 45 8.0 ESE 6 7 3 4 - - 0.8
04/10:10pm 27.7 27.4 12.6 39 9.0 SE 6 7 3 4 - - 0.8
04/10:00pm 27.7 27.3 12.3 38 9.2 SE 6 6 3 3 - - 0.8
04/09:50pm 27.9 29.1 15.9 48 7.6 ENE 4 6 2 3 - - 0.8
04/09:40pm 28.0 29.3 16.1 48 7.5 E 4 4 2 2 - - 0.8
04/09:30pm 28.4 29.6 15.8 46 7.9 E 4 6 2 3 - - 0.8
04/09:20pm 28.6 29.5 15.0 43 8.5 E 4 4 2 2 - - 0.8
04/09:10pm 28.9 29.7 14.8 42 8.8 ESE 4 4 2 2 - - 0.8
04/09:00pm 29.0 29.5 14.1 40 9.2 ESE 4 6 2 3 - - 0.8
04/08:50pm 28.9 29.5 14.3 40 9.0 E 4 4 2 2 - - 0.8
04/08:40pm 29.0 29.7 14.6 41 8.9 ESE 4 4 2 2 - - 0.8
04/08:30pm 29.0 30.1 14.5 41 9.0 ESE 2 4 1 2 - - 0.8
04/08:20pm 29.2 30.0 14.8 41 9.0 SSE 4 6 2 3 - - 0.8
04/08:10pm 29.2 30.0 14.7 41 9.0 SSE 4 6 2 3 - - 0.8
04/08:00pm 29.4 30.4 15.3 42 8.8 SSE 4 6 2 3 - - 0.8
04/07:50pm 29.7 30.3 15.3 41 9.0 S 6 6 3 3 - - 0.8
04/07:40pm 30.0 30.6 15.2 40 9.3 SSW 6 6 3 3 - - 0.8
04/07:30pm 30.3 31.4 15.7 41 9.2 SW 4 6 2 3 - - 0.8
04/07:20pm 30.7 31.4 16.0 41 9.4 SW 7 9 4 5 - - 0.8
04/07:10pm 30.6 31.0 15.2 39 9.7 SW 7 9 4 5 - - 0.8
04/07:00pm 30.7 31.9 15.8 40 9.5 SW 4 7 2 4 - - 0.8
04/06:50pm 30.9 32.9 16.9 43 9.0 SSW 2 4 1 2 - - 0.8
04/06:40pm 30.9 32.3 16.5 42 9.2 SSE 4 4 2 2 - - 0.8
04/06:30pm 30.9 32.6 17.1 43 8.9 S 4 4 2 2 - - 0.8
04/06:20pm 31.2 32.9 17.2 43 9.1 WSW 4 6 2 3 - - 0.8
04/06:10pm 31.5 32.7 16.0 39 9.9 W 4 6 2 3 - - 0.8
04/06:00pm 31.6 32.9 16.2 39 9.9 NW 4 4 2 2 - - 0.8
04/05:50pm 31.8 33.2 16.4 39 9.9 NW 4 4 2 2 - - 0.8
04/05:40pm 32.0 33.1 15.6 37 10.4 NW 4 6 2 3 - - 0.8
04/05:30pm 32.0 32.5 15.1 36 10.7 WNW 6 7 3 4 - - 0.8
04/05:20pm 31.8 32.4 15.3 37 10.4 NNW 6 6 3 3 - - 0.8
04/05:10pm 31.3 32.9 17.9 44 8.8 NNW 6 9 3 5 - - 0.8
04/05:00pm 30.1 30.5 17.3 46 8.3 NW 11 15 6 8 - - 0.8
04/04:50pm 28.7 28.7 18.2 53 6.9 WNW 15 19 8 10 - - 0.8
04/04:40pm 30.0 32.9 19.9 54 6.8 WNW 4 7 2 4 - - 0.8
04/04:30pm 30.1 32.4 18.5 49 7.6 W 4 6 2 3 - - 0.8
04/04:20pm 29.5 31.6 19.0 53 7.0 S 6 7 3 4 - - 0.8
04/04:10pm 29.9 32.3 19.7 54 6.8 S 6 7 3 4 - - 0.8
04/04:00pm 29.2 31.4 19.2 54 6.6 S 6 6 3 3 - - 0.8
04/03:50pm 28.2 31.0 20.5 63 5.2 S 6 6 3 3 - - 0.8
04/03:40pm 27.1 29.3 19.6 63 5.0 S 7 7 4 4 - - 0.8
04/03:30pm 26.0 28.1 19.0 65 4.6 S 6 7 3 4 - - 0.8
04/03:20pm 25.3 27.8 20.3 74 3.3 SE 7 9 4 5 - - 0.8
04/03:10pm 25.7 27.7 21.6 78 2.8 S 13 17 7 9 - - 0.8
04/03:00pm 28.9 32.5 23.0 70 4.1 WNW 9 11 5 6 - - 0.2
04/02:50pm 30.7 31.4 18.9 49 7.8 W 13 15 7 8 - - 0.0
04/02:40pm 33.1 34.5 17.7 40 10.1 W 7 15 4 8 - - 0.0
04/02:30pm 32.4 33.1 17.0 39 10.0 WNW 9 11 5 6 - - 0.0
04/02:20pm 30.8 31.7 18.5 47 8.1 W 11 17 6 9 - - 0.0
04/02:10pm 31.6 32.3 18.0 44 8.9 W 11 15 6 8 - - 0.0
04/02:00pm 32.3 33.4 17.9 42 9.5 W 9 13 5 7 - - 0.0
04/01:50pm 31.5 32.9 18.7 46 8.5 WNW 9 11 5 6 - - 0.0
04/01:40pm 30.1 31.3 19.0 51 7.4 WNW 11 15 6 8 - - 0.0
04/01:30pm 30.8 31.3 18.4 47 8.2 WNW 13 15 7 8 - - 0.0
04/01:20pm 31.0 31.6 17.8 45 8.6 WNW 11 15 6 8 - - 0.0
04/01:10pm 30.7 32.2 19.7 52 7.4 W 11 15 6 8 - - 0.0
04/01:00pm 30.6 32.0 19.5 51 7.4 WNW 11 15 6 8 - - 0.0
04/12:50pm 30.3 30.9 17.6 46 8.3 WNW 11 17 6 9 - - 0.0
04/12:40pm 29.6 30.2 18.6 51 7.2 W 13 17 7 9 - - 0.0
04/12:30pm 29.9 31.0 18.8 51 7.3 W 11 15 6 8 - - 0.0
04/12:20pm 29.6 31.8 20.4 57 6.2 NW 9 11 5 6 - - 0.0
04/12:10pm 29.9 31.6 19.3 53 7.1 W 9 13 5 7 - - 0.0
04/12:00pm 29.1 30.3 19.0 54 6.7 W 11 13 6 7 - - 0.0
04/11:50am 29.4 30.8 18.6 52 7.1 WNW 9 13 5 7 - - 0.0
04/11:40am 29.1 30.6 18.9 54 6.7 WNW 9 11 5 6 - - 0.0
04/11:30am 28.9 30.1 19.1 55 6.5 WNW 11 13 6 7 - - 0.0
04/11:20am 28.6 29.9 19.2 56 6.2 W 11 15 6 8 - - 0.0
04/11:00am 27.8 28.4 18.5 57 6.1 WNW 13 15 7 8 - - 0.0
04/10:50am 27.8 29.2 18.7 57 6.0 WNW 9 13 5 7 - - 0.0
04/10:40am 27.5 28.8 18.4 57 5.9 WNW 9 15 5 8 - - 0.0
04/10:30am 26.8 28.4 19.1 62 5.1 W 9 13 5 7 - - 0.0
04/10:20am 26.1 27.0 18.4 62 5.0 W 11 13 6 7 - - 0.0
04/10:10am 26.1 27.4 18.4 62 5.0 W 9 13 5 7 - - 0.0
04/10:00am 25.4 26.6 19.1 68 4.1 W 11 13 6 7 - - 33.2
04/09:50am 25.2 26.6 18.7 67 4.2 W 9 13 5 7 - - 33.2
04/09:40am 24.9 26.0 18.8 69 4.0 W 11 15 6 8 - - 33.2
04/09:30am 24.8 26.6 18.7 69 4.0 W 7 11 4 6 - - 33.2
04/09:20am 24.0 25.9 19.0 73 3.3 WNW 7 13 4 7 - - 33.2
04/09:10am 23.6 24.4 18.2 71 3.5 NW 11 13 6 7 - - 33.2
04/09:00am 23.1 23.9 18.2 74 3.1 NW 11 13 6 7 - - 33.2
04/08:50am 22.4 23.6 18.3 77 2.6 NW 9 13 5 7 - - 33.2
04/08:40am 23.2 24.5 18.4 74 3.1 NW 9 9 5 5 - - 33.2
04/08:30am 22.4 23.4 17.8 75 2.9 NW 9 13 5 7 - - 33.2
04/08:20am 22.4 24.0 18.3 77 2.6 NNW 7 7 4 4 - - 33.2
04/08:10am 22.0 23.7 18.5 80 2.2 NW 7 9 4 5 - - 33.2
04/08:00am 21.8 23.4 18.3 80 2.2 NNW 7 11 4 6 - - 33.2
04/07:50am 21.7 23.3 18.3 81 2.2 NNW 7 9 4 5 - - 33.2
04/07:40am 21.0 22.6 18.3 84 1.7 NNW 7 9 4 5 - - 33.2
04/07:30am 20.5 22.0 18.1 86 1.5 NNW 7 9 4 5 - - 33.2
04/07:20am 20.2 21.9 18.6 90 1.0 NNW 7 7 4 4 - - 33.2
04/07:10am 19.9 21.5 18.3 90 1.0 NNW 7 9 4 5 - - 33.2
04/07:00am 19.3 20.5 18.2 93 0.7 NNW 9 11 5 6 - - 33.2
04/06:50am 19.2 20.3 18.0 93 0.8 NNW 9 9 5 5 - - 33.2
04/06:40am 19.0 20.1 18.1 94 0.6 NW 9 11 5 6 - - 33.2
04/06:30am 19.0 20.1 18.1 94 0.6 NW 9 11 5 6 - - 33.2
04/06:20am 18.9 20.0 18.1 95 0.5 NW 9 11 5 6 - - 33.2
04/06:10am 18.9 20.0 18.1 95 0.5 NW 9 9 5 5 - - 33.2
04/06:00am 18.9 20.0 18.0 94 0.6 NW 9 9 5 5 - - 33.2
04/05:50am 18.9 20.0 18.1 95 0.5 NW 9 9 5 5 - - 33.2
04/05:40am 18.7 20.2 18.1 96 0.4 NW 7 9 4 5 - - 33.2
04/05:30am 18.7 20.5 18.3 98 0.3 WNW 6 7 3 4 - - 33.2
04/05:20am 18.7 20.5 18.3 98 0.3 NW 6 6 3 3 - - 33.2
04/05:10am 18.7 20.5 18.3 98 0.3 NW 6 6 3 3 - - 33.2
04/05:00am 18.6 20.4 18.4 99 0.1 NW 6 7 3 4 - - 33.2
04/04:50am 18.5 20.8 18.5 100 0.0 WNW 4 6 2 3 - - 33.2
04/04:40am 18.5 20.4 18.5 100 0.0 WNW 6 7 3 4 - - 33.2
04/04:30am 18.5 21.1 18.5 100 0.0 W 2 6 1 3 - - 33.2
04/04:20am 18.5 21.1 18.5 100 0.0 W 2 4 1 2 - - 33.2
04/04:10am 18.4 20.6 18.4 100 0.0 S 4 6 2 3 - - 33.2
04/04:00am 18.4 20.6 18.4 100 0.0 SSE 4 6 2 3 - - 33.2
04/03:50am 18.4 20.2 18.4 100 0.0 SSE 6 7 3 4 - - 33.2
04/03:40am 18.5 20.8 18.5 100 0.0 S 4 6 2 3 - - 33.2
04/03:30am 18.4 20.6 18.4 100 0.0 SSE 4 7 2 4 - - 33.2
04/03:20am 18.4 20.2 18.4 100 0.0 SE 6 7 3 4 - - 33.2
04/03:10am 18.4 20.2 18.4 100 0.0 SE 6 7 3 4 - - 33.2
04/03:00am 18.5 20.2 18.5 100 0.0 SE 7 7 4 4 - - 33.2
04/02:50am 18.5 20.4 18.5 100 0.0 E 6 6 3 3 - - 33.2
04/02:40am 18.5 20.4 18.5 100 0.0 E 6 6 3 3 - - 33.2
04/02:30am 18.5 20.4 18.5 100 0.0 E 6 7 3 4 - - 33.2
04/02:20am 18.5 20.3 18.4 99 0.1 E 6 6 3 3 - - 33.2
04/02:10am 18.4 20.2 18.4 100 0.0 ENE 6 6 3 3 - - 33.2
04/02:00am 18.5 20.2 18.5 100 0.0 NE 7 9 4 5 - - 33.2
04/01:50am 18.5 20.4 18.5 100 0.0 NE 6 9 3 5 - - 33.2
04/01:40am 18.5 20.4 18.5 100 0.0 NE 6 7 3 4 - - 33.2
04/01:30am 18.5 20.2 18.5 100 0.0 ENE 7 9 4 5 - - 33.2
04/01:20am 18.6 20.3 18.6 100 0.0 ENE 7 9 4 5 - - 33.2
04/01:10am 18.6 20.3 18.6 100 0.0 ENE 7 9 4 5 - - 33.2
04/01:00am 18.5 20.2 18.5 100 0.0 ENE 7 11 4 6 - - 33.2
04/12:50am 18.6 20.3 18.6 100 0.0 NE 7 9 4 5 - - 33.2
04/12:40am 18.6 20.3 18.6 100 0.0 NE 7 9 4 5 - - 33.2
04/12:30am 18.7 20.7 18.7 100 0.0 NNE 6 7 3 4 - - 33.2
04/12:20am 18.8 20.6 18.8 100 0.0 NE 7 9 4 5 - - 33.2
04/12:10am 18.8 20.6 18.8 100 0.0 NE 7 9 4 5 - - 33.2
04/12:00am 18.8 20.3 18.8 100 0.0 NE 9 11 5 6 - - 33.2
 
Date/Time
EDT
Temp
°C
App
Temp
°C
Dew
Point
°C
Rel
Hum
%
Delta-T
°C
Wind Press
QNH
hPa
Press
MSL
hPa
Rain since
9am
mm
Dir  Spd
km/h
Gust
km/h
Spd
kts
Gust
kts
03/11:50pm 18.9 20.4 18.9 100 0.0 NE 9 11 5 6 - - 33.2
03/11:40pm 19.0 20.5 19.0 100 0.0 ENE 9 11 5 6 - - 33.2
03/11:30pm 19.1 20.7 19.1 100 0.0 ENE 9 11 5 6 - - 33.2
03/11:20pm 19.2 20.8 19.2 100 0.0 ENE 9 9 5 5 - - 33.2
03/11:10pm 19.2 21.2 19.2 100 0.0 ENE 7 7 4 4 - - 33.2
03/11:00pm 19.2 21.2 19.1 99 0.1 ENE 7 7 4 4 - - 33.2
03/10:50pm 19.2 21.4 19.2 100 0.0 ENE 6 7 3 4 - - 33.2
03/10:40pm 19.2 21.2 19.2 100 0.0 E 7 9 4 5 - - 33.2
03/10:30pm 19.2 21.2 19.2 100 0.0 ENE 7 9 4 5 - - 33.2
03/10:20pm 19.3 21.4 19.3 100 0.0 ENE 7 9 4 5 - - 33.2
03/10:10pm 19.3 21.3 19.2 99 0.1 ENE 7 9 4 5 - - 33.2
03/10:00pm 19.3 21.5 19.1 99 0.1 E 6 7 3 4 - - 33.2
03/09:50pm 19.2 21.4 19.1 99 0.1 ENE 6 7 3 4 - - 33.2
03/09:40pm 19.3 21.5 19.2 99 0.1 NE 6 7 3 4 - - 33.2
03/09:30pm 19.4 21.6 19.2 99 0.1 NNE 6 7 3 4 - - 33.2
03/09:20pm 19.4 21.6 19.1 98 0.2 NE 6 7 3 4 - - 33.2
03/09:10pm 19.5 21.1 19.2 98 0.2 NNE 9 11 5 6 - - 33.2
03/09:00pm 19.7 21.1 19.5 99 0.1 N 11 13 6 7 - - 33.2
03/08:50pm 19.8 22.0 19.6 99 0.1 NNE 7 9 4 5 - - 33.2
03/08:40pm 19.8 22.0 19.6 99 0.1 NNE 7 9 4 5 - - 33.0
03/08:30pm 19.8 22.1 19.5 98 0.2 NE 6 7 3 4 - - 33.0
03/08:20pm 20.0 22.3 19.5 97 0.3 ENE 6 7 3 4 - - 33.0
03/08:10pm 20.0 22.1 19.3 96 0.5 E 7 9 4 5 - - 33.0
03/08:00pm 19.7 21.7 19.2 97 0.3 ENE 7 9 4 5 - - 33.0
03/07:50pm 19.6 21.5 19.0 96 0.4 ENE 7 9 4 5 - - 33.0
03/07:40pm 19.6 21.0 18.7 94 0.6 E 9 11 5 6 - - 33.0
03/07:30pm 19.6 21.1 18.8 95 0.5 E 9 9 5 5 - - 33.0
03/07:20pm 19.7 21.1 18.6 93 0.7 E 9 9 5 5 - - 33.0
03/07:10pm 19.5 21.2 18.6 94 0.6 NE 7 11 4 6 - - 33.0
03/07:00pm 20.2 21.9 18.5 90 1.1 E 7 9 4 5 - - 33.0
03/06:50pm 20.1 21.1 17.8 86 1.5 ESE 9 11 5 6 - - 33.0
03/06:40pm 19.6 20.4 17.4 87 1.4 SE 9 11 5 6 - - 33.0
03/06:30pm 19.0 19.8 17.4 90 1.0 SSE 9 11 5 6 - - 33.0
03/06:20pm 18.4 19.6 17.4 94 0.6 SE 7 11 4 6 - - 33.0
03/06:10pm 18.2 19.0 17.4 95 0.5 SE 9 17 5 9 - - 33.0
03/06:00pm 18.1 17.0 17.3 95 0.5 SSE 19 20 10 11 - - 32.6
03/05:50pm 18.7 15.9 17.4 92 0.8 S 28 41 15 22 - - 30.4
03/05:40pm 20.4 20.1 19.2 93 0.8 SSW 19 28 10 15 - - 16.0
03/05:30pm 24.1 25.2 21.9 87 1.5 WSW 19 33 10 18 - - 4.2
03/05:20pm 30.5 31.9 18.7 49 7.8 SSE 9 33 5 18 - - 0.0
03/05:10pm 31.2 32.9 16.2 40 9.6 SSE 2 6 1 3 - - 0.0
03/05:00pm 31.6 32.8 16.0 39 10.0 E 4 4 2 2 - - 0.0
03/04:50pm 31.9 33.1 16.0 38 10.2 ENE 4 6 2 3 - - 0.0
03/04:40pm 32.3 33.7 16.3 38 10.3 ESE 4 7 2 4 - - 0.0
03/04:30pm 32.9 33.8 16.1 36 10.8 ENE 6 7 3 4 - - 0.0
03/04:20pm 33.2 34.4 15.9 35 11.1 NE 4 7 2 4 - - 0.0
03/04:10pm 33.0 34.7 16.2 36 10.8 NNE 2 4 1 2 - - 0.0
03/04:00pm 32.7 33.9 15.8 36 10.8 N 4 6 2 3 - - 0.0
03/03:50pm 32.3 33.1 15.9 37 10.5 N 6 9 3 5 - - 0.0
03/03:40pm 32.6 33.8 16.0 36 10.6 NNE 4 7 2 4 - - 0.0
03/03:30pm 32.2 33.0 15.9 37 10.4 - 6 7 3 4 - - 0.0
03/03:20pm 32.0 32.7 15.7 37 10.4 ENE 6 9 3 5 - - 0.0
03/03:10pm 32.0 32.8 15.9 38 10.3 ENE 6 7 3 4 - - 0.0
03/03:00pm 32.2 33.1 16.2 38 10.3 E 6 7 3 4 - - 0.0
03/02:50pm 33.1 33.8 16.1 36 10.9 ENE 7 9 4 5 - - 0.0
03/02:40pm 32.5 33.4 16.2 37 10.5 E 6 7 3 4 - - 0.0
03/02:30pm 32.5 32.9 16.4 38 10.4 SE 9 11 5 6 - - 0.0
03/02:20pm 33.5 33.9 16.3 35 11.1 SE 9 13 5 7 - - 0.0
03/02:10pm 32.5 32.1 15.3 35 10.9 SSE 11 15 6 8 - - 0.0
03/02:00pm 31.9 31.4 15.9 38 10.2 SE 13 17 7 9 - - 0.0
03/01:50pm 31.9 31.5 16.2 38 10.1 SE 13 19 7 10 - - 0.0
03/01:40pm 32.7 32.5 16.7 38 10.4 SSE 13 17 7 9 - - 0.0
03/01:30pm 32.0 31.5 16.0 38 10.2 SSE 13 19 7 10 - - 0.0
03/01:20pm 31.3 31.5 16.7 41 9.4 S 11 19 6 10 - - 0.0
03/01:10pm 31.8 32.0 15.8 38 10.2 SSW 9 11 5 6 - - 0.0
03/01:00pm 31.8 32.2 16.3 39 9.9 SSW 9 13 5 7 - - 0.0
03/12:50pm 33.4 34.0 15.7 34 11.3 SW 7 11 4 6 - - 0.0
03/12:40pm 32.3 32.5 15.8 37 10.5 WSW 9 11 5 6 - - 0.0
03/12:30pm 32.0 32.1 15.5 37 10.5 SW 9 11 5 6 - - 0.0
03/12:20pm 31.9 31.9 16.2 38 10.1 SW 11 13 6 7 - - 0.0
03/12:00pm 33.4 33.7 16.1 35 11.1 W 9 13 5 7 - - 0.0
03/11:50am 33.5 33.9 16.3 35 11.1 W 9 11 5 6 - - 0.0
03/11:40am 32.9 33.1 15.8 35 10.9 WNW 9 13 5 7 - - 0.0
03/11:30am 32.3 32.3 15.1 35 10.9 WNW 9 13 5 7 - - 0.0
03/11:20am 30.9 31.0 15.4 39 9.8 WNW 9 11 5 6 - - 0.0
03/11:10am 31.8 32.4 15.9 38 10.1 NW 7 9 4 5 - - 0.0
03/11:00am 31.6 32.5 16.0 39 10.0 NW 6 7 3 4 - - 0.0
03/10:50am 31.5 32.7 15.9 39 9.9 WNW 4 9 2 5 - - 0.0
03/10:40am 30.7 31.3 15.4 39 9.7 W 6 9 3 5 - - 0.0
03/10:30am 30.6 31.4 15.9 41 9.3 W 6 7 3 4 - - 0.0
03/10:20am 29.2 29.9 15.6 43 8.6 W 6 7 3 4 - - 0.0
03/10:10am 28.4 29.1 15.5 45 8.1 E 6 9 3 5 - - 0.0
03/10:00am 27.1 28.3 15.9 50 7.0 ENE 4 6 2 3 - - 0.0
03/09:50am 27.2 27.7 15.6 49 7.3 NE 7 9 4 5 - - 0.0
03/09:40am 27.9 28.8 16.0 48 7.5 ENE 6 7 3 4 - - 0.0
03/09:30am 28.5 29.3 15.9 46 8.0 ESE 6 7 3 4 - - 0.0
03/09:20am 28.3 28.9 15.3 45 8.1 ESE 6 9 3 5 - - 0.0
03/09:10am 27.2 27.9 15.6 49 7.3 SE 6 9 3 5 - - 0.0
03/09:00am 27.0 27.8 15.9 50 7.0 SE 6 7 3 4 - - 0.0
03/08:50am 26.5 27.2 15.5 50 6.9 ESE 6 7 3 4 - - 0.0
03/08:40am 25.8 26.3 15.5 53 6.4 E 7 9 4 5 - - 0.0
03/08:30am 25.3 25.3 15.1 53 6.3 E 9 11 5 6 - - 0.0
03/08:20am 25.2 25.6 15.4 54 6.1 E 7 9 4 5 - - 0.0
03/08:10am 24.7 25.1 15.3 56 5.8 E 7 9 4 5 - - 0.0
03/08:00am 23.6 23.6 15.3 59 5.1 E 9 11 5 6 - - 0.0
03/07:50am 23.0 23.0 15.1 61 4.8 E 9 11 5 6 - - 0.0
03/07:40am 22.4 22.7 15.0 63 4.5 E 7 11 4 6 - - 0.0
03/07:30am 21.5 21.4 15.0 66 3.9 E 9 9 5 5 - - 0.0
03/07:20am 20.6 20.9 15.0 70 3.4 ESE 7 9 4 5 - - 0.0
03/07:10am 20.0 20.2 14.7 71 3.2 E 7 7 4 4 - - 0.0
03/07:00am 19.3 19.2 14.9 75 2.6 E 9 9 5 5 - - 0.0
03/06:50am 19.1 19.3 14.8 76 2.6 E 7 9 4 5 - - 0.0
03/06:40am 18.6 18.4 14.8 78 2.3 E 9 9 5 5 - - 0.0
03/06:30am 18.4 18.6 14.8 79 2.1 ESE 7 9 4 5 - - 0.0
03/06:20am 18.3 18.5 14.8 80 2.1 ESE 7 9 4 5 - - 0.0
03/06:10am 18.2 18.4 14.8 80 2.0 SE 7 9 4 5 - - 0.0
03/06:00am 18.2 18.0 14.8 80 2.0 SE 9 9 5 5 - - 0.0
03/05:50am 18.2 18.5 14.9 81 2.0 ESE 7 9 4 5 - - 0.0
03/05:40am 18.3 18.2 14.9 80 2.0 ESE 9 9 5 5 - - 0.0
03/05:30am 18.4 18.3 15.0 80 2.0 ESE 9 9 5 5 - - 0.0
03/05:20am 18.5 18.4 14.9 79 2.2 ESE 9 9 5 5 - - 0.0
03/05:10am 18.5 18.4 14.9 79 2.2 ESE 9 11 5 6 - - 0.0
03/05:00am 18.5 18.4 14.9 79 2.2 ESE 9 11 5 6 - - 0.0
03/04:50am 18.6 18.9 14.9 79 2.2 ESE 7 9 4 5 - - 0.0
03/04:40am 18.6 18.5 14.9 79 2.2 ESE 9 11 5 6 - - 0.0
03/04:30am 18.7 19.0 15.1 79 2.2 ESE 7 11 4 6 - - 0.0
03/04:20am 18.9 18.9 15.1 78 2.3 ESE 9 11 5 6 - - 0.0
03/04:10am 19.0 19.0 15.1 78 2.3 ESE 9 9 5 5 - - 0.0
03/04:00am 19.0 19.0 15.1 78 2.3 ESE 9 9 5 5 - - 0.0
03/03:50am 19.2 19.2 15.3 78 2.4 E 9 9 5 5 - - 0.0
03/03:40am 19.4 19.4 15.3 77 2.5 E 9 9 5 5 - - 0.0
03/03:30am 19.6 19.2 15.3 76 2.6 E 11 13 6 7 - - 0.0
03/03:20am 19.7 19.7 15.3 76 2.7 E 9 11 5 6 - - 0.0
03/03:10am 19.8 19.9 15.5 76 2.6 E 9 11 5 6 - - 0.0
03/03:00am 20.0 19.8 15.6 76 2.7 E 11 13 6 7 - - 0.0
03/02:50am 20.1 20.2 15.6 75 2.7 E 9 11 5 6 - - 0.0
03/02:40am 20.2 20.4 15.7 75 2.7 - 9 9 5 5 - - 0.0
03/02:30am 20.3 20.5 15.7 75 2.8 E 9 11 5 6 - - 0.0
03/02:20am 20.3 20.5 15.7 75 2.8 ESE 9 11 5 6 - - 0.0
03/02:10am 20.3 20.5 15.8 75 2.8 ESE 9 9 5 5 - - 0.0
03/02:00am 20.3 20.5 15.8 75 2.8 ESE 9 11 5 6 - - 0.0
03/01:50am 20.4 20.6 15.8 75 2.8 - 9 11 5 6 - - 0.0
03/01:40am 20.4 20.2 15.8 75 2.8 E 11 13 6 7 - - 0.0
03/01:30am 20.5 20.7 15.8 74 2.9 - 9 11 5 6 - - 0.0
03/01:20am 20.5 20.7 15.8 74 2.9 - 9 11 5 6 - - 0.0
03/01:00am 20.8 21.0 15.8 73 3.1 E 9 9 5 5 - - 0.0
03/12:50am 20.9 21.1 15.8 72 3.1 E 9 9 5 5 - - 0.0
03/12:40am 21.0 21.2 15.8 72 3.2 ESE 9 11 5 6 - - 0.0
03/12:30am 21.2 21.0 15.8 71 3.3 ESE 11 13 6 7 - - 0.0
03/12:20am 21.3 21.1 15.8 71 3.4 ESE 11 11 6 6 - - 0.0
03/12:10am 21.5 21.3 15.8 70 3.5 ESE 11 11 6 6 - - 0.0
03/12:00am 21.7 21.5 15.8 69 3.6 ESE 11 13 6 7 - - 0.0
 
Date/Time
EDT
Temp
°C
App
Temp
°C
Dew
Point
°C
Rel
Hum
%
Delta-T
°C
Wind Press
QNH
hPa
Press
MSL
hPa
Rain since
9am
mm
Dir  Spd
km/h
Gust
km/h
Spd
kts
Gust
kts
02/11:50pm 21.9 21.7 15.7 68 3.8 ESE 11 11 6 6 - - 0.0
02/11:40pm 22.0 21.8 15.7 67 3.9 ESE 11 11 6 6 - - 0.0
02/11:30pm 22.1 22.6 15.6 66 4.0 ESE 7 9 4 5 - - 0.0
02/11:20pm 22.1 21.8 15.5 66 4.0 SSE 11 13 6 7 - - 0.0
02/11:10pm 21.9 21.6 15.5 67 3.9 SE 11 11 6 6 - - 0.0
02/11:00pm 21.9 21.6 15.5 67 3.9 SE 11 13 6 7 - - 0.0
02/10:50pm 22.0 22.1 15.5 66 4.0 ESE 9 11 5 6 - - 0.0
02/10:40pm 22.0 22.1 15.5 66 4.0 ESE 9 11 5 6 - - 0.0
02/10:30pm 22.1 22.2 15.5 66 4.0 ESE 9 11 5 6 - - 0.0
02/10:20pm 22.3 22.4 15.6 66 4.1 E 9 13 5 7 - - 0.0
02/10:10pm 22.7 22.9 15.7 64 4.3 E 9 11 5 6 - - 0.0
02/10:00pm 23.5 23.8 15.9 62 4.7 E 9 11 5 6 - - 0.0
02/09:50pm 24.2 24.6 16.2 61 5.0 E 9 13 5 7 - - 0.0
02/09:40pm 25.4 26.2 16.4 57 5.7 E 7 9 4 5 - - 0.0
02/09:30pm 25.9 26.9 16.8 57 5.8 SE 7 9 4 5 - - 0.0
02/09:20pm 26.2 27.2 16.8 56 6.0 SE 7 9 4 5 - - 0.0
02/09:10pm 26.4 27.0 16.8 55 6.1 SE 9 11 5 6 - - 0.0
02/09:00pm 26.7 27.2 16.6 54 6.4 ESE 9 11 5 6 - - 0.0
02/08:50pm 27.1 27.1 15.1 47 7.4 SE 9 11 5 6 - - 0.0
02/08:40pm 27.4 26.5 12.6 40 8.8 SE 9 11 5 6 - - 0.0
02/08:30pm 27.7 25.7 10.1 33 10.1 SSE 11 13 6 7 - - 0.0
02/08:20pm 28.0 25.5 9.8 32 10.4 SSE 13 15 7 8 - - 0.0
02/08:10pm 28.3 25.8 9.6 31 10.7 S 13 17 7 9 - - 0.0
02/08:00pm 28.7 25.7 9.1 29 11.1 SSE 15 20 8 11 - - 0.0
02/07:50pm 29.1 26.0 8.9 28 11.5 S 15 19 8 10 - - 0.0
02/07:40pm 29.5 25.4 8.8 27 11.7 S 20 22 11 12 - - 0.0
02/07:30pm 30.0 26.0 8.4 26 12.2 SSE 19 22 10 12 - - 0.0
02/07:20pm 30.6 26.6 8.1 24 12.7 SSE 19 24 10 13 - - 0.0
02/07:10pm 31.5 27.4 7.7 22 13.4 S 19 24 10 13 - - 0.0
02/07:00pm 31.9 28.1 7.6 22 13.7 SSE 17 20 9 11 - - 0.0
02/06:50pm 32.1 29.1 7.7 22 13.8 SSE 13 17 7 9 - - 0.0
02/06:40pm 32.3 28.1 7.6 21 13.9 SSE 19 22 10 12 - - 0.0
02/06:30pm 33.2 29.4 7.7 20 14.5 SSE 17 22 9 12 - - 0.0
02/06:20pm 34.4 31.5 8.0 19 15.1 SSE 13 17 7 9 - - 0.0
02/06:10pm 34.6 31.0 8.3 20 15.2 S 17 20 9 11 - - 0.0
02/06:00pm 35.1 31.6 8.7 20 15.3 SSE 17 20 9 11 - - 0.0
02/05:50pm 35.6 32.5 8.9 19 15.6 SSE 15 19 8 10 - - 0.0
02/05:40pm 35.8 32.4 9.0 19 15.7 S 17 20 9 11 - - 0.0
02/05:30pm 36.3 32.9 9.3 19 15.9 S 17 19 9 10 - - 0.0
02/05:20pm 36.3 32.9 9.2 19 15.9 S 17 20 9 11 - - 0.0
02/05:10pm 36.7 33.3 9.1 18 16.2 S 17 24 9 13 - - 0.0
02/05:00pm 36.8 33.1 9.6 19 16.1 S 19 22 10 12 - - 0.0
02/04:50pm 37.5 34.3 9.8 18 16.5 S 17 22 9 12 - - 0.0
02/04:40pm 37.3 34.1 10.1 19 16.3 S 17 20 9 11 - - 0.0
02/04:30pm 37.5 34.1 10.4 19 16.3 S 19 20 10 11 - - 0.0
02/04:20pm 38.1 35.3 10.0 18 16.8 S 15 20 8 11 - - 0.0
02/04:10pm 38.0 35.0 10.5 19 16.6 S 17 22 9 12 - - 0.0
02/04:00pm 38.3 35.7 10.8 19 16.7 S 15 17 8 9 - - 0.0
02/03:50pm 38.6 36.8 10.8 19 16.9 S 11 15 6 8 - - 0.0
02/03:40pm 38.3 36.4 11.8 20 16.3 S 13 19 7 10 - - 0.0
02/03:30pm 38.8 37.3 11.8 20 16.6 S 11 15 6 8 - - 0.0
02/03:20pm 38.2 36.6 11.5 20 16.4 S 11 15 6 8 - - 0.0
02/03:10pm 38.4 37.6 11.7 20 16.4 SSW 7 13 4 7 - - 0.0
02/03:00pm 38.7 38.2 12.7 21 16.2 S 7 15 4 8 - - 0.0
02/02:50pm 39.5 39.0 11.9 19 17.1 SW 6 9 3 5 - - 0.0
02/02:40pm 39.0 37.8 11.6 19 16.9 S 9 15 5 8 - - 0.0
02/02:30pm 38.8 37.3 11.8 20 16.6 S 11 15 6 8 - - 0.0
02/02:20pm 38.7 37.2 11.8 20 16.6 S 11 13 6 7 - - 0.0

Other formats

Comma delimited format used in spreadsheet applications
http://www.bom.gov.au/fwo/IDN60801/IDN60801.99133.axf

JavaScript Object Notation format (JSON) in row-major order
http://www.bom.gov.au/fwo/IDN60801/IDN60801.99133.json

Data quality

Most of these data are generated automatically and are frequently updated. Quality checks on data are not normally performed. It is possible for incorrect values to appear. Refer to information at About Latest Weather Observations and please check the disclaimer before using these data.